Time;durP1;ratioP1;P1;durP2;ratioP2;P2;SDS_P1;SDS_P2;PMS_P1;PMS_P2;Temp;Humidity;BMP_temperature;BMP_pressure;BME280_temperature;BME280_humidity;BME280_pressure;Samples;Min_cycle;Max_cycle;Signal;HPM_P1;HPM_P2
2021/10/04 00:04:47;;;;;;;18.55;14.93;;;;;;;13.96;67.26;100010.13;6011388;23;99220;-82
2021/10/04 00:07:12;;;;;;;16.50;13.40;;;;;;;13.94;67.66;100019.91;4935732;28;97217;-83
2021/10/04 00:09:39;;;;;;;16.98;14.27;;;;;;;13.87;67.76;100005.31;4934421;28;101192;-84
2021/10/04 00:12:06;;;;;;;18.58;13.57;;;;;;;13.81;68.12;100019.69;4912816;28;101708;-83
2021/10/04 00:14:32;;;;;;;17.15;13.40;;;;;;;13.82;68.00;100014.34;4921321;28;97239;-83
2021/10/04 00:16:57;;;;;;;15.23;13.02;;;;;;;13.88;67.93;100017.59;4941124;28;96825;-84
2021/10/04 00:19:23;;;;;;;19.45;14.82;;;;;;;13.89;67.71;100006.94;4922675;28;101674;-83
2021/10/04 00:21:49;;;;;;;15.77;13.82;;;;;;;13.80;68.19;100010.94;4940419;28;97415;-83
2021/10/04 00:24:15;;;;;;;20.13;14.43;;;;;;;13.81;68.07;100009.13;4956280;28;97631;-82
2021/10/04 00:26:41;;;;;;;19.88;15.27;;;;;;;13.78;67.95;100004.88;4920709;28;97042;-83
2021/10/04 00:29:07;;;;;;;18.15;13.90;;;;;;;13.76;67.90;100006.75;4937907;28;101180;-84
2021/10/04 00:31:32;;;;;;;17.40;15.45;;;;;;;13.62;68.52;100003.13;4955972;28;97267;-83
2021/10/04 00:33:58;;;;;;;16.50;14.00;;;;;;;13.71;68.40;100003.50;4956944;28;97156;-81
2021/10/04 00:36:24;;;;;;;16.77;13.52;;;;;;;13.67;68.22;99998.44;4912514;28;96873;-82
2021/10/04 00:38:49;;;;;;;19.33;14.60;;;;;;;13.66;68.51;100000.25;4937836;28;101632;-82
2021/10/04 00:41:18;;;;;;;17.73;14.68;;;;;;;13.65;68.29;100006.47;4940574;28;96708;-81
2021/10/04 00:43:44;;;;;;;21.45;13.70;;;;;;;13.62;68.65;100016.31;4956684;28;96746;-82
2021/10/04 00:46:09;;;;;;;18.23;14.50;;;;;;;13.72;67.98;100012.25;4940251;28;97171;-82
2021/10/04 00:48:35;;;;;;;17.02;14.73;;;;;;;13.64;68.41;100011.78;4925373;28;101370;-81
2021/10/04 00:51:00;;;;;;;18.17;13.93;;;;;;;13.62;68.24;100013.69;4936557;28;100108;-84
2021/10/04 00:53:26;;;;;;;15.98;14.30;;;;;;;13.54;68.59;100012.28;4926282;28;97152;-81
2021/10/04 00:55:54;;;;;;;21.70;14.45;;;;;;;13.59;68.67;100015.53;4956928;28;97259;-82
2021/10/04 00:58:19;;;;;;;20.25;14.75;;;;;;;13.56;68.51;100009.56;4923876;28;101298;-80
2021/10/04 01:00:45;;;;;;;17.88;14.55;;;;;;;13.58;68.59;100012.97;4948141;28;98230;-82
2021/10/04 01:03:11;;;;;;;21.00;14.40;;;;;;;13.58;68.53;100013.84;4939846;28;97241;-81
2021/10/04 01:05:36;;;;;;;17.20;14.93;;;;;;;13.57;68.60;100019.19;4923052;28;97304;-82
2021/10/04 01:08:02;;;;;;;15.68;14.02;;;;;;;13.54;68.65;100021.97;4922998;28;100731;-82
2021/10/04 01:10:28;;;;;;;17.48;13.05;;;;;;;13.56;68.58;100014.84;4939216;28;97225;-80
2021/10/04 01:12:54;;;;;;;14.70;13.07;;;;;;;13.58;68.29;100026.16;4921673;28;97112;-81
2021/10/04 01:15:21;;;;;;;17.58;13.10;;;;;;;13.58;68.06;100021.75;4903734;28;97339;-82
2021/10/04 01:17:47;;;;;;;18.38;15.13;;;;;;;13.53;68.26;100030.81;4924435;28;97637;-82
2021/10/04 01:20:12;;;;;;;19.25;14.43;;;;;;;13.50;68.35;100034.47;4939664;28;101288;-82
2021/10/04 01:22:38;;;;;;;17.30;13.57;;;;;;;13.51;68.62;100030.03;4922333;28;97174;-82
2021/10/04 01:25:05;;;;;;;16.75;13.63;;;;;;;13.46;69.06;100034.69;4920015;28;96940;-84
2021/10/04 01:27:31;;;;;;;16.02;12.82;;;;;;;13.48;68.45;100044.22;4918921;28;101119;-84
2021/10/04 01:29:56;;;;;;;16.00;13.13;;;;;;;13.46;68.68;100043.44;4927451;28;101083;-82
2021/10/04 01:32:22;;;;;;;14.15;12.38;;;;;;;13.36;68.92;100047.50;4907161;28;96734;-82
2021/10/04 01:34:47;;;;;;;15.85;13.10;;;;;;;13.42;68.50;100054.25;4939728;28;96921;-82
2021/10/04 01:37:13;;;;;;;14.82;12.38;;;;;;;13.38;68.37;100064.09;4921673;28;101335;-82
2021/10/04 01:39:39;;;;;;;20.52;13.45;;;;;;;13.35;68.43;100064.22;4909858;28;100034;-83
2021/10/04 01:42:04;;;;;;;18.13;14.40;;;;;;;13.29;68.80;100065.41;4939414;28;96754;-82
2021/10/04 01:44:33;;;;;;;16.60;13.27;;;;;;;13.30;68.73;100058.34;4935562;28;97015;-82
2021/10/04 01:46:58;;;;;;;16.73;14.55;;;;;;;13.21;68.86;100074.56;4907803;28;100092;-82
2021/10/04 01:49:24;;;;;;;17.15;14.85;;;;;;;13.20;68.98;100076.34;4911162;28;99942;-81
2021/10/04 01:51:50;;;;;;;18.38;13.50;;;;;;;13.16;69.05;100073.94;4937419;28;96807;-83
2021/10/04 01:54:15;;;;;;;19.15;13.75;;;;;;;13.18;69.12;100078.22;4923511;28;96975;-83
2021/10/04 01:56:43;;;;;;;18.08;13.85;;;;;;;13.24;68.94;100061.25;4938391;28;101344;-81
2021/10/04 01:59:08;;;;;;;16.17;13.40;;;;;;;13.22;68.57;100069.22;4924554;28;97288;-81
2021/10/04 02:01:34;;;;;;;16.45;13.23;;;;;;;13.19;68.41;100079.06;4932038;28;97091;-81
2021/10/04 02:03:59;;;;;;;15.32;13.82;;;;;;;13.16;68.53;100076.56;4927229;28;97118;-80
2021/10/04 02:06:25;;;;;;;18.25;13.85;;;;;;;13.08;68.70;100083.06;4915605;28;101561;-81
2021/10/04 02:08:50;;;;;;;17.70;13.48;;;;;;;13.03;68.86;100087.72;4930025;28;97616;-81
2021/10/04 02:11:16;;;;;;;17.42;13.25;;;;;;;13.01;68.93;100080.81;4919761;28;97031;-79
2021/10/04 02:13:42;;;;;;;15.30;13.20;;;;;;;13.01;69.18;100075.53;4922363;28;96861;-81
2021/10/04 02:16:07;;;;;;;21.15;13.32;;;;;;;12.96;69.20;100078.38;4938779;28;101451;-81
2021/10/04 02:18:33;;;;;;;23.90;14.23;;;;;;;12.91;69.16;100077.72;4945746;28;97014;-82
2021/10/04 02:20:59;;;;;;;16.08;13.43;;;;;;;12.90;69.74;100081.31;4932996;28;96624;-79
2021/10/04 02:23:24;;;;;;;16.40;14.15;;;;;;;12.89;69.54;100079.63;4913112;28;96654;-81
2021/10/04 02:25:52;;;;;;;20.20;13.88;;;;;;;12.91;68.88;100081.25;4918967;28;100971;-80
2021/10/04 02:28:19;;;;;;;15.98;13.27;;;;;;;12.91;69.53;100077.72;4930023;28;100313;-81
2021/10/04 02:30:46;;;;;;;19.58;14.45;;;;;;;12.88;69.63;100085.78;4938971;28;96669;-82
2021/10/04 02:33:12;;;;;;;16.00;13.50;;;;;;;12.80;69.70;100087.91;4912533;28;96909;-82
2021/10/04 02:35:38;;;;;;;16.77;13.63;;;;;;;12.76;69.85;100084.59;4936144;28;97644;-81
2021/10/04 02:38:04;;;;;;;17.88;15.15;;;;;;;12.82;69.63;100086.06;4922084;28;101570;-81
2021/10/04 02:40:30;;;;;;;17.15;14.23;;;;;;;12.79;69.69;100081.81;4939087;28;97249;-81
2021/10/04 02:42:56;;;;;;;19.42;14.15;;;;;;;12.76;69.39;100089.00;4923772;28;96890;-80
2021/10/04 02:45:22;;;;;;;19.50;14.10;;;;;;;12.79;70.33;100097.59;4919543;28;101172;-80
2021/10/04 02:47:49;;;;;;;17.45;13.57;;;;;;;12.73;69.83;100086.50;4923035;28;101865;-81
2021/10/04 02:50:18;;;;;;;15.70;13.07;;;;;;;12.79;69.98;100091.50;4939751;28;96990;-81
2021/10/04 02:52:44;;;;;;;16.45;13.68;;;;;;;12.76;69.57;100084.59;4921720;28;96935;-81
2021/10/04 02:55:10;;;;;;;17.73;13.98;;;;;;;12.80;69.51;100094.06;4952414;28;97443;-81
2021/10/04 02:57:35;;;;;;;19.95;14.13;;;;;;;12.78;69.83;100089.78;4916125;28;99714;-81
2021/10/04 03:00:02;;;;;;;22.35;14.35;;;;;;;12.73;69.65;100092.63;4940665;28;97014;-81
2021/10/04 03:02:27;;;;;;;17.17;13.98;;;;;;;12.74;69.75;100083.81;4918374;28;96904;-80
2021/10/04 03:04:53;;;;;;;17.55;14.02;;;;;;;12.71;69.78;100083.09;4926759;28;101798;-81
2021/10/04 03:07:18;;;;;;;17.90;13.25;;;;;;;12.67;70.02;100075.34;4944435;28;100862;-81
2021/10/04 03:09:44;;;;;;;16.35;13.65;;;;;;;12.75;69.60;100092.56;4948252;28;96874;-81
2021/10/04 03:12:10;;;;;;;20.02;14.57;;;;;;;12.76;69.93;100092.50;4925226;28;96826;-81
2021/10/04 03:14:36;;;;;;;18.58;14.18;;;;;;;12.63;70.58;100099.25;4925582;28;101458;-81
2021/10/04 03:17:02;;;;;;;16.25;13.70;;;;;;;12.68;70.20;100099.88;4960005;28;97596;-81
2021/10/04 03:19:28;;;;;;;19.70;13.55;;;;;;;12.64;70.07;100100.97;4940688;28;97157;-82
2021/10/04 03:21:54;;;;;;;19.80;14.45;;;;;;;12.65;69.98;100108.81;4936211;28;96875;-81
2021/10/04 03:24:19;;;;;;;25.38;15.02;;;;;;;12.63;70.15;100113.28;4927281;28;100062;-81
2021/10/04 03:26:45;;;;;;;16.95;14.40;;;;;;;12.64;69.86;100111.50;4910793;28;101803;-81
2021/10/04 03:29:11;;;;;;;17.02;14.63;;;;;;;12.70;69.75;100116.47;4945245;28;97014;-81
2021/10/04 03:31:38;;;;;;;19.33;14.73;;;;;;;12.68;69.73;100119.19;4946806;28;96967;-81
2021/10/04 03:34:03;;;;;;;20.67;13.90;;;;;;;12.66;70.05;100117.56;4943686;28;97593;-81
2021/10/04 03:36:29;;;;;;;18.20;13.88;;;;;;;12.71;69.51;100114.69;4911448;28;100232;-81
2021/10/04 03:38:56;;;;;;;20.35;14.02;;;;;;;12.65;70.07;100114.06;4948185;28;97459;-82
2021/10/04 03:41:23;;;;;;;16.88;14.10;;;;;;;12.79;69.60;100121.31;4947016;28;96944;-81
2021/10/04 03:43:48;;;;;;;20.20;14.85;;;;;;;12.67;69.73;100125.38;4931201;28;99533;-82
2021/10/04 03:46:14;;;;;;;20.48;14.20;;;;;;;12.62;70.08;100122.13;4936220;28;99745;-82
2021/10/04 03:48:40;;;;;;;17.95;14.50;;;;;;;12.67;69.43;100122.72;4932812;28;97323;-81
2021/10/04 03:51:05;;;;;;;24.27;15.48;;;;;;;12.66;69.77;100120.19;4946826;28;96645;-82
2021/10/04 03:53:31;;;;;;;16.50;13.48;;;;;;;12.68;69.48;100128.84;4935783;28;100404;-82
2021/10/04 03:55:57;;;;;;;17.33;14.43;;;;;;;12.64;69.22;100136.03;4951574;28;100580;-82
2021/10/04 03:58:22;;;;;;;19.90;13.77;;;;;;;12.66;68.81;100128.09;4973403;28;96857;-80
2021/10/04 04:00:48;;;;;;;19.73;14.50;;;;;;;12.52;69.48;100126.06;4932728;28;97169;-82
2021/10/04 04:03:14;;;;;;;24.83;16.30;;;;;;;12.52;69.60;100139.25;4926813;28;99756;-81
2021/10/04 04:05:39;;;;;;;25.33;15.85;;;;;;;12.41;70.02;100136.22;4941970;28;96954;-81
2021/10/04 04:08:05;;;;;;;16.67;14.90;;;;;;;12.40;69.80;100140.63;4940372;28;97993;-81
2021/10/04 04:10:31;;;;;;;17.42;14.55;;;;;;;12.39;70.66;100135.44;4946704;28;96905;-82
2021/10/04 04:12:56;;;;;;;21.60;15.77;;;;;;;12.36;70.26;100143.47;4928034;28;101263;-81
2021/10/04 04:15:22;;;;;;;17.85;14.90;;;;;;;12.36;70.39;100146.97;4945116;28;97273;-81
2021/10/04 04:17:48;;;;;;;23.05;15.40;;;;;;;12.39;69.62;100141.56;4959841;28;96650;-80
2021/10/04 04:20:13;;;;;;;26.15;16.02;;;;;;;12.37;69.67;100140.78;4931601;28;97274;-80
2021/10/04 04:22:40;;;;;;;22.65;16.48;;;;;;;12.33;69.58;100144.44;4930743;28;101579;-81
2021/10/04 04:25:07;;;;;;;19.55;15.45;;;;;;;12.23;70.23;100151.91;4920947;28;100757;-81
2021/10/04 04:27:32;;;;;;;25.10;15.38;;;;;;;12.26;70.08;100152.69;4961019;28;97022;-80
2021/10/04 04:30:00;;;;;;;22.23;16.27;;;;;;;12.23;69.70;100162.44;4964100;28;98137;-82
2021/10/04 04:32:28;;;;;;;20.08;15.63;;;;;;;12.23;70.13;100158.94;4930672;28;101325;-82
2021/10/04 04:34:54;;;;;;;21.63;15.43;;;;;;;12.15;70.26;100153.16;4932275;28;100322;-82
2021/10/04 04:37:19;;;;;;;19.10;14.63;;;;;;;12.18;70.13;100160.91;4930936;28;96855;-81
2021/10/04 04:39:45;;;;;;;21.00;15.57;;;;;;;12.18;70.07;100159.13;4948610;28;97288;-81
2021/10/04 04:42:11;;;;;;;20.23;14.30;;;;;;;12.19;70.06;100167.91;4931189;28;100081;-81
2021/10/04 04:44:36;;;;;;;20.02;14.85;;;;;;;12.23;69.52;100166.84;4948268;28;99196;-81
2021/10/04 04:47:02;;;;;;;20.73;15.07;;;;;;;12.18;69.31;100171.44;4963720;28;96705;-80
2021/10/04 04:49:31;;;;;;;22.15;14.77;;;;;;;12.24;69.45;100160.66;4930924;28;96872;-83
2021/10/04 04:51:58;;;;;;;19.15;14.23;;;;;;;12.22;69.68;100163.38;4929509;28;98970;-81
2021/10/04 04:54:25;;;;;;;21.95;15.32;;;;;;;12.17;69.65;100167.97;4939476;28;96678;-82
2021/10/04 04:56:53;;;;;;;24.25;14.65;;;;;;;12.19;69.49;100170.53;4947191;28;96611;-81
2021/10/04 04:59:19;;;;;;;22.73;14.80;;;;;;;12.14;70.06;100170.72;4932766;28;96950;-81
2021/10/04 05:01:45;;;;;;;22.45;15.65;;;;;;;12.16;70.19;100181.19;4926851;28;100370;-82
2021/10/04 05:04:11;;;;;;;26.60;15.77;;;;;;;12.16;70.13;100181.19;4939891;28;101301;-81
2021/10/04 05:06:37;;;;;;;25.80;15.52;;;;;;;12.22;69.83;100178.31;4915409;28;97648;-80
2021/10/04 05:09:03;;;;;;;24.25;14.73;;;;;;;12.25;69.68;100186.06;4932461;28;96728;-81
2021/10/04 05:11:28;;;;;;;21.67;16.17;;;;;;;12.27;70.13;100194.72;4934131;28;97454;-81
2021/10/04 05:13:54;;;;;;;25.95;15.82;;;;;;;12.27;69.64;100194.72;4898309;28;99541;-82
2021/10/04 05:16:20;;;;;;;22.58;15.18;;;;;;;12.37;69.40;100198.69;4939327;28;96857;-82
2021/10/04 05:18:45;;;;;;;25.05;17.02;;;;;;;12.39;69.04;100199.47;4918255;28;96758;-81
2021/10/04 05:21:11;;;;;;;23.70;16.00;;;;;;;12.41;69.25;100202.88;4930048;28;100154;-81
2021/10/04 05:23:36;;;;;;;21.63;16.92;;;;;;;12.43;69.14;100208.09;4912792;28;99266;-82
2021/10/04 05:26:02;;;;;;;25.05;17.20;;;;;;;12.57;68.66;100212.78;4941060;28;97240;-83
2021/10/04 05:28:28;;;;;;;22.15;17.15;;;;;;;12.43;69.08;100213.38;4936272;28;96692;-80
2021/10/04 05:30:53;;;;;;;20.50;17.48;;;;;;;12.33;69.45;100210.25;4934230;28;100500;-81
2021/10/04 05:33:19;;;;;;;24.52;17.23;;;;;;;12.25;69.91;100209.75;4937770;28;100096;-84
2021/10/04 05:35:46;;;;;;;21.25;15.82;;;;;;;12.17;70.78;100204.81;4955878;28;96562;-85
2021/10/04 05:38:12;;;;;;;24.88;15.73;;;;;;;12.34;70.43;100211.13;4938455;28;96882;-79
2021/10/04 05:40:37;;;;;;;27.35;17.40;;;;;;;12.58;69.20;100206.56;4945234;28;99265;-80
2021/10/04 05:43:03;;;;;;;23.30;15.73;;;;;;;12.57;69.11;100207.50;4928021;28;99992;-80
2021/10/04 05:45:28;;;;;;;25.25;16.83;;;;;;;12.52;69.61;100212.09;4924137;28;98247;-80
2021/10/04 05:47:54;;;;;;;26.23;16.70;;;;;;;12.63;68.98;100223.03;4904244;28;96722;-80
2021/10/04 05:50:20;;;;;;;20.15;16.63;;;;;;;12.64;70.00;100230.00;4904521;28;101089;-80
2021/10/04 05:52:45;;;;;;;24.02;16.00;;;;;;;13.16;68.03;100224.16;4932113;28;98534;-81
2021/10/04 05:55:11;;;;;;;26.65;16.52;;;;;;;13.67;66.22;100225.28;4898509;28;96890;-82
2021/10/04 05:57:37;;;;;;;25.75;15.70;;;;;;;13.87;65.83;100222.53;4916491;28;97482;-81
2021/10/04 06:00:05;;;;;;;22.13;15.43;;;;;;;14.02;65.44;100213.88;4890751;28;101359;-80
2021/10/04 06:02:32;;;;;;;23.85;15.70;;;;;;;14.24;64.85;100212.78;4933596;28;97767;-81
2021/10/04 06:04:57;;;;;;;19.48;14.93;;;;;;;14.41;64.59;100214.56;4894625;28;96878;-83
2021/10/04 06:07:23;;;;;;;23.38;15.13;;;;;;;14.45;64.25;100216.94;4896358;28;97320;-82
2021/10/04 06:09:48;;;;;;;21.42;15.70;;;;;;;14.62;64.37;100217.91;4914177;28;101134;-82
2021/10/04 06:12:14;;;;;;;20.52;15.02;;;;;;;14.43;64.76;100215.34;4913203;28;97261;-82
2021/10/04 06:14:42;;;;;;;19.50;15.88;;;;;;;14.44;64.92;100215.25;4914985;28;96950;-82
2021/10/04 06:17:08;;;;;;;18.48;15.63;;;;;;;14.67;64.70;100219.38;4909393;28;97405;-83
2021/10/04 06:19:33;;;;;;;20.08;14.50;;;;;;;14.70;64.18;100223.66;4914336;28;98434;-82
2021/10/04 06:21:59;;;;;;;24.95;15.45;;;;;;;14.97;63.94;100223.97;4907192;28;101544;-82
2021/10/04 06:24:24;;;;;;;19.90;14.80;;;;;;;15.16;63.36;100229.97;4921567;28;96982;-83
2021/10/04 06:26:50;;;;;;;19.35;15.63;;;;;;;15.47;62.94;100230.91;4908932;28;97087;-83
2021/10/04 06:29:15;;;;;;;20.25;16.02;;;;;;;15.82;61.91;100230.75;4911712;28;101377;-83
2021/10/04 06:31:41;;;;;;;23.13;15.50;;;;;;;15.87;61.95;100227.84;4910039;28;98406;-82
2021/10/04 06:34:07;;;;;;;23.60;14.27;;;;;;;16.19;61.16;100228.63;4934448;28;97169;-82
2021/10/04 06:36:32;;;;;;;23.77;16.90;;;;;;;16.56;60.12;100232.59;4897580;28;96942;-81
2021/10/04 06:38:58;;;;;;;19.55;14.30;;;;;;;16.58;59.86;100230.69;4928191;28;97740;-82
2021/10/04 06:41:23;;;;;;;22.20;14.60;;;;;;;16.79;59.83;100243.63;4912984;28;97961;-82
2021/10/04 06:43:49;;;;;;;22.83;14.82;;;;;;;17.16;59.36;100242.19;4917880;28;96822;-82
2021/10/04 06:46:15;;;;;;;26.48;14.50;;;;;;;17.38;58.50;100250.50;4912140;28;96859;-82
2021/10/04 06:48:41;;;;;;;20.77;14.52;;;;;;;17.72;57.66;100247.50;4925124;28;101341;-87
2021/10/04 06:51:07;;;;;;;25.55;15.65;;;;;;;17.94;57.80;100246.97;4930132;28;100432;-83
2021/10/04 06:53:33;;;;;;;31.45;15.10;;;;;;;18.05;57.71;100247.13;4895272;28;96940;-91
2021/10/04 06:55:58;;;;;;;29.00;16.38;;;;;;;18.11;57.67;100254.66;4903116;28;97413;-90
2021/10/04 06:58:24;;;;;;;25.50;15.63;;;;;;;18.72;56.04;100242.53;4914119;28;101478;-90
2021/10/04 07:00:50;;;;;;;20.10;14.80;;;;;;;19.28;55.17;100247.50;4904475;28;100130;-90
2021/10/04 07:03:16;;;;;;;20.05;15.20;;;;;;;19.81;53.66;100252.59;4925287;28;97561;-89
2021/10/04 07:05:45;;;;;;;27.33;15.20;;;;;;;20.19;52.97;100249.78;4936508;28;96889;-89
2021/10/04 07:08:10;;;;;;;19.10;13.82;;;;;;;21.05;51.77;100258.34;4932002;28;101451;-87
2021/10/04 07:10:36;;;;;;;18.67;13.40;;;;;;;21.59;50.34;100253.09;4923169;28;101448;-87
2021/10/04 07:13:02;;;;;;;25.48;13.05;;;;;;;22.67;48.35;100247.69;4941906;28;97201;-86
2021/10/04 07:15:27;;;;;;;23.88;14.48;;;;;;;23.72;45.86;100250.97;4926869;28;97403;-87
2021/10/04 07:17:53;;;;;;;27.20;13.18;;;;;;;24.81;43.98;100243.59;4908294;28;101779;-87
2021/10/04 07:20:18;;;;;;;21.05;13.20;;;;;;;25.41;42.19;100242.38;4933877;28;101580;-86
2021/10/04 07:22:44;;;;;;;22.83;14.35;;;;;;;26.59;41.08;100242.22;4925604;28;96922;-87
2021/10/04 07:25:10;;;;;;;19.42;13.60;;;;;;;27.23;39.98;100250.88;4930473;28;97441;-86
2021/10/04 07:27:35;;;;;;;18.67;13.68;;;;;;;28.06;37.81;100249.25;4927267;28;98535;-88
2021/10/04 07:30:03;;;;;;;17.75;13.70;;;;;;;28.38;37.42;100259.22;4927615;28;100588;-88
2021/10/04 07:32:28;;;;;;;22.48;13.60;;;;;;;28.49;36.60;100255.38;4943496;28;98589;-87
2021/10/04 07:34:54;;;;;;;21.73;13.27;;;;;;;28.84;36.66;100252.28;4928494;28;97122;-87
2021/10/04 07:37:19;;;;;;;16.33;13.65;;;;;;;29.23;35.57;100262.31;4918243;28;101665;-81
2021/10/04 07:39:45;;;;;;;19.30;12.70;;;;;;;30.13;34.79;100264.53;4938546;28;102223;-80
2021/10/04 07:42:11;;;;;;;15.50;12.07;;;;;;;30.86;33.93;100268.53;4920743;28;96809;-81
2021/10/04 07:44:36;;;;;;;17.08;12.70;;;;;;;30.99;33.36;100262.47;4937441;28;97020;-80
2021/10/04 07:47:03;;;;;;;18.33;11.93;;;;;;;31.21;33.27;100257.13;4942289;28;101516;-81
2021/10/04 07:49:29;;;;;;;15.23;11.30;;;;;;;31.44;32.86;100257.88;4919531;28;99924;-85
2021/10/04 07:51:56;;;;;;;11.27;9.95;;;;;;;32.06;32.42;100261.94;4928588;28;96791;-86
2021/10/04 07:54:22;;;;;;;11.70;10.50;;;;;;;32.16;31.93;100261.59;4917618;28;96935;-83
2021/10/04 07:56:48;;;;;;;14.25;11.05;;;;;;;32.85;31.40;100259.06;4922023;28;98328;-81
2021/10/04 07:59:15;;;;;;;12.05;10.90;;;;;;;33.17;30.34;100256.78;4936370;28;101023;-83
2021/10/04 08:01:41;;;;;;;13.80;10.45;;;;;;;33.14;30.84;100263.44;4949827;28;96955;-77
2021/10/04 08:04:07;;;;;;;14.48;10.80;;;;;;;33.77;29.93;100257.00;4939156;28;97370;-84
2021/10/04 08:06:32;;;;;;;11.02;9.95;;;;;;;33.32;30.21;100256.63;4932229;28;100928;-82
2021/10/04 08:08:58;;;;;;;12.38;9.90;;;;;;;32.91;30.99;100263.69;4947712;28;98076;-83
2021/10/04 08:11:26;;;;;;;13.55;10.68;;;;;;;32.74;31.26;100256.06;4920768;28;97209;-82
2021/10/04 08:13:52;;;;;;;13.38;10.93;;;;;;;33.32;30.67;100245.75;4918448;28;97064;-83
2021/10/04 08:16:20;;;;;;;11.30;10.25;;;;;;;33.35;30.12;100250.78;4922776;28;102307;-83
2021/10/04 08:18:45;;;;;;;11.30;10.00;;;;;;;33.83;29.85;100249.91;4928832;28;99598;-82
2021/10/04 08:21:12;;;;;;;12.23;10.00;;;;;;;33.67;29.95;100243.81;4931472;28;96947;-83
2021/10/04 08:23:37;;;;;;;12.52;9.52;;;;;;;33.97;29.81;100241.56;4916531;28;96910;-83
2021/10/04 08:26:04;;;;;;;11.43;10.32;;;;;;;33.64;30.41;100236.06;4912470;28;100279;-82
2021/10/04 08:28:30;;;;;;;11.05;9.95;;;;;;;33.14;31.08;100240.84;4924443;28;97885;-83
2021/10/04 08:30:56;;;;;;;11.68;9.20;;;;;;;33.13;30.83;100242.75;4906627;28;96831;-83
2021/10/04 08:33:23;;;;;;;10.00;9.07;;;;;;;33.60;29.98;100240.25;4931704;28;97138;-83
2021/10/04 08:35:49;;;;;;;10.80;9.70;;;;;;;31.95;31.94;100252.44;4927128;28;97922;-84
2021/10/04 08:38:14;;;;;;;14.82;9.75;;;;;;;32.53;31.41;100251.53;4925102;28;101602;-84
2021/10/04 08:40:40;;;;;;;10.57;9.63;;;;;;;32.43;31.56;100247.22;4910127;28;97209;-83
2021/10/04 08:43:07;;;;;;;10.15;9.15;;;;;;;32.12;32.44;100255.72;4924776;28;96916;-84
2021/10/04 08:45:33;;;;;;;12.05;10.25;;;;;;;32.62;31.97;100255.75;4911434;28;101571;-85
2021/10/04 08:47:59;;;;;;;10.90;9.93;;;;;;;33.44;30.75;100257.72;4920482;28;101332;-83
2021/10/04 08:50:31;;;;;;;11.15;10.05;;;;;;;33.55;30.53;100246.28;4922392;28;96979;-91
2021/10/04 08:52:58;;;;;;;10.90;9.98;;;;;;;33.67;30.06;100243.81;4919008;28;98329;-81
2021/10/04 08:55:24;;;;;;;11.93;10.73;;;;;;;34.05;30.04;100242.47;4927367;28;101615;-87
2021/10/04 08:57:50;;;;;;;11.05;9.98;;;;;;;34.54;29.48;100242.03;4908681;28;102652;-84
2021/10/04 09:00:16;;;;;;;15.77;10.40;;;;;;;33.73;30.21;100250.31;4939012;28;96784;-84
2021/10/04 09:02:41;;;;;;;12.60;10.10;;;;;;;33.52;30.75;100252.13;4922386;28;96900;-84
2021/10/04 09:05:27;;;;;;;13.68;10.43;;;;;;;33.96;30.25;100244.50;4903963;28;101663;-85
2021/10/04 09:08:07;;;;;;;15.82;10.70;;;;;;;34.61;29.74;100247.50;4921301;28;101201;-83
2021/10/04 09:10:35;;;;;;;12.95;10.55;;;;;;;35.10;29.07;100244.28;4920186;28;97986;-81
2021/10/04 09:13:03;;;;;;;11.52;10.20;;;;;;;34.65;29.53;100251.50;4919156;28;96855;-84
2021/10/04 09:15:31;;;;;;;12.90;10.32;;;;;;;34.78;29.49;100251.47;4919992;28;98315;-88
2021/10/04 09:18:09;;;;;;;11.85;10.75;;;;;;;34.59;28.93;100252.31;4949053;28;98576;-90
2021/10/04 09:20:57;;;;;;;10.30;9.25;;;;;;;34.75;29.35;100241.00;4934312;28;97782;-88
2021/10/04 09:23:56;;;;;;;10.90;9.93;;;;;;;34.77;29.64;100244.34;4947426;28;97081;-88
2021/10/04 09:26:33;;;;;;;12.32;10.07;;;;;;;34.78;29.21;100242.47;4921174;28;100212;-92
2021/10/04 09:29:10;;;;;;;10.88;9.80;;;;;;;35.25;28.87;100233.13;4949526;28;97889;-87
2021/10/04 09:31:38;;;;;;;10.80;9.70;;;;;;;35.36;28.95;100245.25;4919825;28;96753;-87
2021/10/04 09:34:12;;;;;;;11.68;10.10;;;;;;;35.08;28.93;100240.97;4935459;28;96898;-92
2021/10/04 09:36:50;;;;;;;11.63;9.88;;;;;;;34.58;29.49;100243.31;4939176;28;101331;-89
2021/10/04 09:39:26;;;;;;;10.35;9.35;;;;;;;34.55;29.32;100240.19;4963496;28;98415;-90
2021/10/04 09:42:02;;;;;;;10.75;9.73;;;;;;;34.46;29.60;100240.38;4936682;28;96954;-89
2021/10/04 09:44:43;;;;;;;10.57;9.75;;;;;;;34.64;29.16;100242.47;4946315;28;96912;-89
2021/10/04 09:47:13;;;;;;;10.32;9.45;;;;;;;34.19;30.05;100239.53;4934581;28;101136;-88
2021/10/04 09:50:09;;;;;;;11.63;10.50;;;;;;;34.26;29.75;100244.97;4930024;28;101289;-86
2021/10/04 09:52:46;;;;;;;10.55;9.38;;;;;;;33.85;30.47;100240.50;4934015;28;96871;-83
2021/10/04 09:55:19;;;;;;;11.38;9.52;;;;;;;33.86;30.84;100244.06;4933379;28;98382;-88
2021/10/04 09:57:57;;;;;;;10.63;9.48;;;;;;;33.55;30.64;100237.28;4932000;28;98561;-86
2021/10/04 10:00:23;;;;;;;12.05;10.35;;;;;;;32.77;31.86;100240.19;4945989;28;97989;-83
2021/10/04 10:02:54;;;;;;;10.80;9.68;;;;;;;32.73;31.87;100246.25;4917352;28;97299;-79
2021/10/04 10:05:31;;;;;;;10.48;9.48;;;;;;;32.12;32.79;100254.91;4936536;28;96891;-81
2021/10/04 10:07:57;;;;;;;10.48;9.48;;;;;;;32.13;33.07;100249.25;4914089;28;101593;-78
2021/10/04 10:10:22;;;;;;;13.85;9.63;;;;;;;31.87;33.44;100244.38;4913048;28;101401;-80
2021/10/04 10:12:49;;;;;;;11.32;9.55;;;;;;;31.68;33.78;100242.28;4931643;28;96997;-78
2021/10/04 10:15:25;;;;;;;18.10;10.20;;;;;;;31.06;34.63;100246.28;4931179;28;97263;-79
2021/10/04 10:17:56;;;;;;;15.55;11.05;;;;;;;30.95;34.94;100254.88;4925779;28;101152;-79
2021/10/04 10:20:22;;;;;;;10.77;9.82;;;;;;;29.66;36.73;100249.28;4932433;28;97381;-79
2021/10/04 10:22:50;;;;;;;12.75;9.52;;;;;;;29.62;36.87;100253.38;4932268;28;97353;-79
2021/10/04 10:25:34;;;;;;;14.88;10.18;;;;;;;29.50;37.70;100255.63;4932069;28;96950;-78
2021/10/04 10:28:00;;;;;;;12.85;9.18;;;;;;;29.17;38.23;100256.75;4921511;28;101435;-79
2021/10/04 10:30:27;;;;;;;14.75;9.77;;;;;;;28.62;39.20;100259.25;4909975;28;101061;-81
2021/10/04 10:32:54;;;;;;;11.10;9.73;;;;;;;28.94;38.59;100264.72;4919020;28;96843;-80
2021/10/04 10:35:49;;;;;;;10.52;8.98;;;;;;;28.62;38.90;100270.03;4937118;28;97315;-80
2021/10/04 10:38:16;;;;;;;10.43;9.43;;;;;;;28.56;39.22;100264.47;4933896;28;98476;-82
2021/10/04 10:40:42;;;;;;;10.48;9.57;;;;;;;28.60;39.08;100265.81;4917082;28;101275;-80
2021/10/04 10:43:12;;;;;;;10.65;9.63;;;;;;;28.03;40.25;100273.88;4949700;28;96884;-80
2021/10/04 10:45:48;;;;;;;10.48;9.55;;;;;;;27.68;41.20;100273.94;4941295;28;97041;-89
2021/10/04 10:48:14;;;;;;;26.65;10.82;;;;;;;27.52;40.61;100271.19;4939335;28;98195;-87
2021/10/04 10:50:41;;;;;;;10.23;9.32;;;;;;;27.30;41.03;100267.22;4922242;28;100866;-91
2021/10/04 10:53:23;;;;;;;13.98;9.57;;;;;;;27.32;41.42;100281.38;4921426;28;97071;-89
2021/10/04 10:55:58;;;;;;;10.10;9.20;;;;;;;27.26;41.39;100272.09;4939238;28;96854;-90
2021/10/04 10:58:26;;;;;;;10.43;9.40;;;;;;;27.20;42.15;100275.44;4914259;28;102081;-88
2021/10/04 11:01:13;;;;;;;10.75;9.75;;;;;;;27.19;41.90;100278.28;4939319;28;97869;-90
2021/10/04 11:03:46;;;;;;;12.13;9.98;;;;;;;27.01;42.58;100279.16;4932089;28;96783;-89
2021/10/04 11:06:12;;;;;;;10.48;8.85;;;;;;;26.78;42.57;100286.94;4937296;28;96874;-90
2021/10/04 11:08:45;;;;;;;12.60;8.48;;;;;;;26.52;43.51;100291.44;4922725;28;99789;-89
2021/10/04 11:11:21;;;;;;;9.30;8.20;;;;;;;26.34;43.65;100291.44;4936077;28;101517;-90
2021/10/04 11:14:08;;;;;;;11.85;9.48;;;;;;;26.31;44.21;100283.69;4925744;28;97042;-89